Time;durP1;ratioP1;P1;durP2;ratioP2;P2;SDS_P1;SDS_P2;PMS_P1;PMS_P2;Temp;Humidity;BMP_temperature;BMP_pressure;BME280_temperature;BME280_humidity;BME280_pressure;Samples;Min_cycle;Max_cycle;Signal;HPM_P1;HPM_P2
2022/08/07 00:01:42;;;;;;;1.25;0.60;;;16.70;72.10;;;;;;5046525;28;20540;-61
2022/08/07 00:04:07;;;;;;;0.70;0.50;;;16.70;72.20;;;;;;5047563;28;20516;-62
2022/08/07 00:06:33;;;;;;;1.00;0.40;;;16.70;72.30;;;;;;5020662;28;20017;-62
2022/08/07 00:08:59;;;;;;;0.63;0.50;;;16.60;72.40;;;;;;5048503;28;20435;-61
2022/08/07 00:11:25;;;;;;;1.98;0.60;;;16.60;72.70;;;;;;5045898;28;20022;-61
2022/08/07 00:13:50;;;;;;;1.67;0.60;;;16.50;72.70;;;;;;5046661;28;20112;-62
2022/08/07 00:16:16;;;;;;;1.15;0.50;;;16.50;72.70;;;;;;5048535;28;20036;-62
2022/08/07 00:18:41;;;;;;;0.95;0.50;;;16.50;72.90;;;;;;5047364;28;20017;-61
2022/08/07 00:21:08;;;;;;;0.77;0.40;;;16.40;73.00;;;;;;5045873;28;20064;-61
2022/08/07 00:23:36;;;;;;;0.75;0.45;;;16.40;73.20;;;;;;5048247;28;20037;-61
2022/08/07 00:26:04;;;;;;;0.90;0.50;;;16.40;73.30;;;;;;5029445;28;20060;-61
2022/08/07 00:28:31;;;;;;;1.05;0.40;;;16.40;73.40;;;;;;5046281;28;20032;-62
2022/08/07 00:30:57;;;;;;;1.13;0.50;;;16.30;73.60;;;;;;5046638;28;20025;-62
2022/08/07 00:33:27;;;;;;;1.55;0.52;;;16.30;73.70;;;;;;5048595;28;20021;-61
2022/08/07 00:35:55;;;;;;;;;;;16.20;73.80;;;;;;5044196;28;20035;-62
2022/08/07 00:38:22;;;;;;;0.87;0.40;;;16.20;73.80;;;;;;5046937;28;20066;-62
2022/08/07 00:40:48;;;;;;;0.75;0.52;;;16.10;74.20;;;;;;5045793;28;20022;-62
2022/08/07 00:43:13;;;;;;;1.38;0.50;;;16.00;74.30;;;;;;5022876;28;20503;-62
2022/08/07 00:45:40;;;;;;;1.25;0.60;;;16.00;74.50;;;;;;5045743;28;20091;-62
2022/08/07 00:48:07;;;;;;;2.15;1.08;;;16.00;74.60;;;;;;5028654;28;20041;-62
2022/08/07 00:50:33;;;;;;;1.00;0.60;;;16.00;74.70;;;;;;5017237;28;20021;-62
2022/08/07 00:52:58;;;;;;;0.70;0.50;;;16.00;74.80;;;;;;5048675;28;20534;-62
2022/08/07 00:55:24;;;;;;;1.25;0.60;;;16.00;74.90;;;;;;5045288;28;20029;-62
2022/08/07 00:57:50;;;;;;;1.55;0.60;;;15.90;75.10;;;;;;5048719;28;20476;-62
2022/08/07 01:00:17;;;;;;;1.25;0.60;;;15.90;75.20;;;;;;5045339;28;20372;-61
2022/08/07 01:02:44;;;;;;;0.88;0.63;;;15.80;75.30;;;;;;5047967;28;20135;-62
2022/08/07 01:05:11;;;;;;;2.35;0.70;;;15.80;75.50;;;;;;5046433;28;20142;-62
2022/08/07 01:07:36;;;;;;;2.75;0.70;;;15.80;75.60;;;;;;5046290;28;20020;-62
2022/08/07 01:10:02;;;;;;;1.23;0.70;;;15.80;75.70;;;;;;5049459;28;20040;-62
2022/08/07 01:12:29;;;;;;;1.20;0.70;;;15.70;75.80;;;;;;5029819;28;20361;-62
2022/08/07 01:14:57;;;;;;;1.50;0.80;;;15.70;75.90;;;;;;5046821;28;20140;-62
2022/08/07 01:17:23;;;;;;;1.40;0.68;;;15.60;76.10;;;;;;5046182;28;20025;-62
2022/08/07 01:19:50;;;;;;;2.13;0.80;;;15.60;76.40;;;;;;5046607;28;20052;-62
2022/08/07 01:22:15;;;;;;;1.77;0.68;;;15.50;76.50;;;;;;5022664;28;20021;-62
2022/08/07 01:24:42;;;;;;;1.42;0.77;;;15.50;76.70;;;;;;5047975;28;20545;-62
2022/08/07 01:27:08;;;;;;;2.38;0.85;;;15.50;76.80;;;;;;5046755;28;20027;-62
2022/08/07 01:29:33;;;;;;;1.70;0.82;;;15.40;76.90;;;;;;5046742;28;20024;-62
2022/08/07 01:31:59;;;;;;;1.10;0.70;;;15.40;77.10;;;;;;5046639;28;20135;-62
2022/08/07 01:34:25;;;;;;;1.40;0.75;;;15.40;77.20;;;;;;5047888;28;20448;-62
2022/08/07 01:36:51;;;;;;;2.25;0.82;;;15.30;77.30;;;;;;5046329;28;20523;-62
2022/08/07 01:39:16;;;;;;;1.58;0.70;;;15.30;77.40;;;;;;5046265;28;20040;-62
2022/08/07 01:41:43;;;;;;;1.20;0.70;;;15.30;77.60;;;;;;5040753;28;20036;-62
2022/08/07 01:44:09;;;;;;;0.90;0.70;;;15.20;77.70;;;;;;5047407;28;20547;-62
2022/08/07 01:46:35;;;;;;;3.28;0.77;;;15.20;77.80;;;;;;5042641;28;20076;-62
2022/08/07 01:49:02;;;;;;;3.55;0.88;;;15.20;78.00;;;;;;5049734;28;20029;-62
2022/08/07 01:51:29;;;;;;;1.42;0.90;;;15.20;78.20;;;;;;5052233;28;20013;-62
2022/08/07 01:53:59;;;;;;;1.05;0.60;;;15.10;78.30;;;;;;5032548;28;20807;-62
2022/08/07 01:56:32;;;;;;;1.50;0.85;;;15.10;78.60;;;;;;5050420;28;20102;-62
2022/08/07 01:59:04;;;;;;;1.33;0.80;;;15.00;78.70;;;;;;5048600;28;20027;-62
2022/08/07 02:01:40;;;;;;;1.65;0.80;;;15.00;79.00;;;;;;5048964;28;20029;-62
2022/08/07 02:04:29;;;;;;;2.70;0.82;;;15.00;79.20;;;;;;5048935;28;20269;-62
2022/08/07 02:06:57;;;;;;;1.48;0.75;;;14.90;79.20;;;;;;5047169;28;20031;-62
2022/08/07 02:09:25;;;;;;;1.73;0.80;;;14.90;80.00;;;;;;5049790;28;20025;-62
2022/08/07 02:11:52;;;;;;;1.33;0.80;;;14.80;79.60;;;;;;5051067;28;20064;-62
2022/08/07 02:14:19;;;;;;;1.30;0.75;;;14.70;79.70;;;;;;5049250;28;20111;-62
2022/08/07 02:16:47;;;;;;;1.77;0.80;;;14.70;79.90;;;;;;5048714;28;20030;-62
2022/08/07 02:19:14;;;;;;;1.42;0.90;;;14.70;80.10;;;;;;5050267;28;20021;-62
2022/08/07 02:21:40;;;;;;;1.42;0.88;;;14.60;80.20;;;;;;5049253;28;20060;-62
2022/08/07 02:24:08;;;;;;;1.52;0.95;;;14.60;80.40;;;;;;5031767;28;20024;-62
2022/08/07 02:26:36;;;;;;;1.35;0.80;;;14.50;80.50;;;;;;5049307;28;20150;-62
2022/08/07 02:29:05;;;;;;;1.88;1.00;;;14.50;80.80;;;;;;5048854;28;20120;-62
2022/08/07 02:31:32;;;;;;;1.10;0.68;;;14.50;80.90;;;;;;5050423;28;20028;-61
2022/08/07 02:33:59;;;;;;;1.58;0.90;;;14.50;81.60;;;;;;5048330;28;20055;-61
2022/08/07 02:36:27;;;;;;;1.60;0.98;;;14.40;81.10;;;;;;5022797;28;20029;-61
2022/08/07 02:38:54;;;;;;;1.60;1.00;;;14.40;81.30;;;;;;5046707;28;20028;-62
2022/08/07 02:41:20;;;;;;;3.42;1.05;;;14.40;81.40;;;;;;5051043;28;20016;-62
2022/08/07 02:43:48;;;;;;;1.20;0.90;;;14.30;81.60;;;;;;5049426;28;20017;-62
2022/08/07 02:46:17;;;;;;;2.05;1.10;;;14.30;81.80;;;;;;5050889;28;20074;-62
2022/08/07 02:48:42;;;;;;;2.15;1.10;;;14.30;82.00;;;;;;5046635;28;20025;-61
2022/08/07 02:51:12;;;;;;;1.50;1.00;;;14.20;82.00;;;;;;5032739;28;20047;-62
2022/08/07 02:53:41;;;;;;;1.60;1.00;;;14.20;82.30;;;;;;5047465;28;20369;-62
2022/08/07 02:56:11;;;;;;;1.95;1.20;;;14.10;82.50;;;;;;5046404;28;20029;-61
2022/08/07 02:58:38;;;;;;;1.65;1.10;;;14.10;82.70;;;;;;5044803;28;20093;-61
2022/08/07 03:01:05;;;;;;;1.60;1.00;;;14.10;83.00;;;;;;5049783;28;20028;-62
2022/08/07 03:03:33;;;;;;;1.92;1.05;;;14.10;83.20;;;;;;5048504;28;20128;-62
2022/08/07 03:06:00;;;;;;;1.85;1.05;;;14.10;83.30;;;;;;5046539;28;20033;-62
2022/08/07 03:08:26;;;;;;;3.38;1.25;;;14.00;83.30;;;;;;5046711;28;20057;-62
2022/08/07 03:10:54;;;;;;;2.38;1.20;;;14.00;83.50;;;;;;5047713;28;20083;-61
2022/08/07 03:13:20;;;;;;;2.70;1.17;;;14.00;83.60;;;;;;5049820;28;20473;-62
2022/08/07 03:15:47;;;;;;;1.60;1.17;;;13.90;83.60;;;;;;5048453;28;20453;-61
2022/08/07 03:18:14;;;;;;;2.40;1.40;;;13.90;83.80;;;;;;5029746;28;20028;-62
2022/08/07 03:20:40;;;;;;;1.83;1.10;;;13.90;83.90;;;;;;5048605;28;20037;-61
2022/08/07 03:23:08;;;;;;;2.17;1.30;;;13.90;84.00;;;;;;5047919;28;20033;-62
2022/08/07 03:25:36;;;;;;;2.25;1.00;;;13.90;84.10;;;;;;5049610;28;20586;-61
2022/08/07 03:28:03;;;;;;;1.67;1.13;;;13.90;84.40;;;;;;5047511;28;20021;-61
2022/08/07 03:30:30;;;;;;;1.35;0.98;;;13.80;84.70;;;;;;5048333;28;20499;-61
2022/08/07 03:32:58;;;;;;;2.15;1.20;;;13.80;85.00;;;;;;5046901;28;20025;-61
2022/08/07 03:35:26;;;;;;;1.95;1.25;;;13.70;85.10;;;;;;5050304;28;20120;-62
2022/08/07 03:38:07;;;;;;;2.30;1.55;;;13.70;85.30;;;;;;5046905;28;20025;-61
2022/08/07 03:40:33;;;;;;;2.05;1.30;;;13.70;85.30;;;;;;5046939;28;20026;-62
2022/08/07 03:43:00;;;;;;;2.15;1.45;;;13.60;85.50;;;;;;5046951;28;20527;-61
2022/08/07 03:45:28;;;;;;;2.40;1.40;;;13.60;85.60;;;;;;5049908;28;20393;-61
2022/08/07 03:47:55;;;;;;;2.30;1.70;;;13.60;85.60;;;;;;5048254;28;20021;-62
2022/08/07 03:50:21;;;;;;;2.47;1.50;;;13.60;85.70;;;;;;5047793;28;20032;-62
2022/08/07 03:52:48;;;;;;;2.17;1.50;;;13.60;85.80;;;;;;5046128;28;20029;-61
2022/08/07 03:55:15;;;;;;;2.50;1.50;;;13.50;85.80;;;;;;5048786;28;20067;-61
2022/08/07 03:57:41;;;;;;;2.20;1.92;;;13.60;86.00;;;;;;5049935;28;20017;-61
2022/08/07 04:00:07;;;;;;;2.38;1.60;;;13.50;86.00;;;;;;5047884;28;20052;-61
2022/08/07 04:02:33;;;;;;;3.22;1.98;;;13.60;86.10;;;;;;5049415;28;20534;-61
2022/08/07 04:04:59;;;;;;;2.60;1.70;;;13.50;86.10;;;;;;5031262;28;20048;-61
2022/08/07 04:07:25;;;;;;;2.50;1.73;;;13.50;86.20;;;;;;5031466;28;20133;-61
2022/08/07 04:09:51;;;;;;;4.20;1.90;;;13.50;86.30;;;;;;5048327;28;20495;-61
2022/08/07 04:12:17;;;;;;;2.55;1.42;;;13.50;86.30;;;;;;5029787;28;20033;-62
2022/08/07 04:14:44;;;;;;;2.35;1.80;;;13.50;86.50;;;;;;5046943;28;20025;-62
2022/08/07 04:17:10;;;;;;;2.78;2.15;;;13.50;86.80;;;;;;5041625;28;20021;-61
2022/08/07 04:19:38;;;;;;;3.53;2.00;;;13.40;86.90;;;;;;5030983;28;20436;-62
2022/08/07 04:22:04;;;;;;;4.38;1.88;;;13.40;87.00;;;;;;5047323;28;20037;-61
2022/08/07 04:24:30;;;;;;;2.85;2.35;;;13.40;87.30;;;;;;5046484;28;20024;-61
2022/08/07 04:26:56;;;;;;;3.60;2.08;;;13.40;87.60;;;;;;5046542;28;20094;-61
2022/08/07 04:29:23;;;;;;;4.57;2.10;;;13.30;87.90;;;;;;5046653;28;20029;-61
2022/08/07 04:31:48;;;;;;;4.28;2.03;;;13.30;88.10;;;;;;5047529;28;20025;-62
2022/08/07 04:34:14;;;;;;;3.17;1.65;;;13.30;88.30;;;;;;5046552;28;20028;-61
2022/08/07 04:36:41;;;;;;;3.55;2.15;;;13.30;88.40;;;;;;5049139;28;20060;-61
2022/08/07 04:39:08;;;;;;;3.10;1.80;;;13.40;88.50;;;;;;5048480;28;20037;-61
2022/08/07 04:41:33;;;;;;;3.65;1.98;;;13.30;88.50;;;;;;5046317;28;20081;-62
2022/08/07 04:44:00;;;;;;;2.53;1.70;;;13.30;88.60;;;;;;5048860;28;20032;-61
2022/08/07 04:46:51;;;;;;;2.80;1.48;;;13.30;88.80;;;;;;5046406;28;20102;-61
2022/08/07 04:49:42;;;;;;;2.35;1.50;;;13.40;88.80;;;;;;5047942;28;20071;-61
2022/08/07 04:52:22;;;;;;;2.63;1.88;;;13.30;89.00;;;;;;5029189;28;20131;-61
2022/08/07 04:55:17;;;;;;;2.75;2.00;;;13.30;89.00;;;;;;5042633;28;20075;-61
2022/08/07 04:57:55;;;;;;;2.78;2.10;;;13.30;89.00;;;;;;5045733;28;20048;-62
2022/08/07 05:00:37;;;;;;;2.50;1.52;;;13.30;89.10;;;;;;5042497;28;20025;-61
2022/08/07 05:03:21;;;;;;;2.67;1.77;;;13.30;89.20;;;;;;5044503;28;20021;-61
2022/08/07 05:06:06;;;;;;;2.53;1.65;;;13.30;89.80;;;;;;5050269;28;20037;-61
2022/08/07 05:08:59;;;;;;;2.65;1.80;;;13.40;89.20;;;;;;5050963;28;20028;-61
2022/08/07 05:11:46;;;;;;;3.72;2.13;;;13.40;89.40;;;;;;5049590;28;20023;-62
2022/08/07 05:14:37;;;;;;;2.40;1.83;;;13.40;89.60;;;;;;5049727;28;20428;-62
2022/08/07 05:17:06;;;;;;;3.35;2.22;;;13.40;89.60;;;;;;5028105;28;20021;-61
2022/08/07 05:19:39;;;;;;;3.40;2.17;;;13.40;89.70;;;;;;5040486;28;20028;-61
2022/08/07 05:22:07;;;;;;;3.50;2.35;;;13.40;89.80;;;;;;5038961;28;20248;-62
2022/08/07 05:24:35;;;;;;;2.67;1.70;;;13.50;89.90;;;;;;5040558;28;20063;-61
2022/08/07 05:27:34;;;;;;;;;;;;;;;;;;;;;
2022/08/07 05:30:01;;;;;;;3.90;2.35;;;13.50;90.00;;;;;;5045580;28;20051;-61
2022/08/07 05:32:27;;;;;;;4.32;3.10;;;13.50;90.00;;;;;;5038144;28;20067;-62
2022/08/07 05:34:54;;;;;;;2.60;1.98;;;13.60;90.10;;;;;;5042700;28;20048;-61
2022/08/07 05:37:21;;;;;;;3.72;2.60;;;13.60;90.20;;;;;;5038232;28;20029;-61
2022/08/07 05:39:47;;;;;;;4.70;3.22;;;13.70;90.20;;;;;;5048850;28;20041;-62
2022/08/07 05:42:13;;;;;;;4.22;2.55;;;13.70;90.30;;;;;;5046033;28;20100;-61
2022/08/07 05:44:39;;;;;;;3.40;2.45;;;13.70;90.60;;;;;;5038975;28;20108;-62
2022/08/07 05:47:06;;;;;;;5.80;3.60;;;13.70;90.40;;;;;;5050139;28;20099;-61
2022/08/07 05:49:32;;;;;;;5.13;3.30;;;13.80;90.50;;;;;;5050175;28;20075;-61
2022/08/07 05:51:58;;;;;;;4.25;3.28;;;13.80;90.50;;;;;;5049073;28;20018;-61
2022/08/07 05:54:24;;;;;;;3.97;2.75;;;13.80;90.60;;;;;;5050359;28;20534;-61
2022/08/07 05:56:51;;;;;;;4.55;3.35;;;13.90;90.60;;;;;;5050791;28;20483;-62
2022/08/07 05:59:18;;;;;;;3.80;3.03;;;13.90;90.60;;;;;;5048824;28;20025;-61
2022/08/07 06:01:45;;;;;;;5.20;3.72;;;14.00;90.70;;;;;;5032809;28;20022;-62
2022/08/07 06:04:14;;;;;;;5.15;3.45;;;14.00;90.80;;;;;;5032213;28;20100;-61
2022/08/07 06:06:39;;;;;;;4.83;3.23;;;14.00;90.80;;;;;;5034666;28;20028;-61
2022/08/07 06:09:05;;;;;;;5.30;3.80;;;14.10;90.90;;;;;;5038841;28;20635;-61
2022/08/07 06:11:33;;;;;;;5.25;4.00;;;14.10;90.90;;;;;;5014911;28;20583;-62
2022/08/07 06:13:59;;;;;;;5.93;3.88;;;14.20;91.10;;;;;;5031706;28;20029;-61
2022/08/07 06:16:30;;;;;;;6.15;4.45;;;14.10;91.10;;;;;;5037006;28;20409;-61
2022/08/07 06:18:57;;;;;;;6.10;3.55;;;14.20;91.10;;;;;;5043238;28;20108;-62
2022/08/07 06:21:23;;;;;;;5.43;3.97;;;14.20;91.20;;;;;;5035822;28;20044;-62
2022/08/07 06:23:49;;;;;;;5.93;4.20;;;14.30;91.20;;;;;;5016229;28;20025;-61
2022/08/07 06:26:15;;;;;;;4.85;3.42;;;14.30;91.20;;;;;;5047143;28;20032;-62
2022/08/07 06:28:52;;;;;;;5.30;4.05;;;14.40;91.20;;;;;;5034122;28;20029;-62
2022/08/07 06:31:18;;;;;;;5.50;4.35;;;14.50;91.20;;;;;;5047509;28;20104;-62
2022/08/07 06:33:45;;;;;;;5.03;3.78;;;14.50;91.20;;;;;;5045030;28;20163;-61
2022/08/07 06:36:10;;;;;;;6.78;4.45;;;14.50;91.20;;;;;;5038012;28;20060;-62
2022/08/07 06:38:36;;;;;;;6.03;4.32;;;14.60;91.20;;;;;;5038235;28;20493;-62
2022/08/07 06:41:08;;;;;;;7.10;4.45;;;14.60;91.20;;;;;;5038977;28;20374;-62
2022/08/07 06:43:36;;;;;;;5.47;3.53;;;14.70;91.20;;;;;;5039335;28;20032;-62
2022/08/07 06:46:02;;;;;;;7.07;5.00;;;14.70;91.20;;;;;;5039067;28;20026;-62
2022/08/07 06:48:28;;;;;;;6.18;4.75;;;14.80;91.30;;;;;;5040265;28;20117;-62
2022/08/07 06:50:58;;;;;;;6.97;4.25;;;14.80;91.30;;;;;;5038557;28;20022;-61
2022/08/07 06:53:25;;;;;;;6.03;4.15;;;14.90;91.30;;;;;;5040820;28;20028;-61
2022/08/07 06:55:52;;;;;;;6.40;4.20;;;15.00;91.30;;;;;;5038306;28;20021;-62
2022/08/07 06:58:20;;;;;;;5.70;4.60;;;15.00;91.30;;;;;;5042012;28;20028;-61
2022/08/07 07:00:45;;;;;;;5.47;4.50;;;15.10;91.30;;;;;;5043856;28;20103;-61
2022/08/07 07:03:12;;;;;;;9.93;4.45;;;15.20;91.30;;;;;;5029510;28;20060;-62
2022/08/07 07:05:41;;;;;;;6.45;4.70;;;15.20;91.20;;;;;;5048249;28;20489;-62
2022/08/07 07:08:07;;;;;;;7.28;4.88;;;15.30;91.20;;;;;;5042264;28;20040;-62
2022/08/07 07:10:34;;;;;;;5.88;4.57;;;15.40;91.20;;;;;;5041780;28;20683;-61
2022/08/07 07:13:11;;;;;;;5.45;4.68;;;15.40;91.10;;;;;;5028797;28;20377;-61
2022/08/07 07:15:43;;;;;;;5.88;4.30;;;15.50;91.10;;;;;;5038383;28;20108;-62
2022/08/07 07:18:52;;;;;;;6.03;4.50;;;15.60;91.00;;;;;;5042410;28;20036;-62
2022/08/07 07:21:27;;;;;;;6.80;4.20;;;15.60;90.90;;;;;;5023962;28;20533;-62
2022/08/07 07:23:54;;;;;;;6.32;4.43;;;15.70;90.90;;;;;;5045432;28;20125;-62
2022/08/07 07:27:13;;;;;;;;;;;;;;;;;;;;;
2022/08/07 07:33:13;;;;;;;4.65;3.30;;;16.10;90.50;;;;;;4943888;28;20077;-62
2022/08/07 07:36:23;;;;;;;4.82;3.38;;;16.10;90.40;;;;;;4943660;28;20031;-61
2022/08/07 07:38:49;;;;;;;4.40;3.05;;;16.30;90.20;;;;;;4936072;28;20039;-62
2022/08/07 07:41:17;;;;;;;4.78;3.42;;;16.30;90.10;;;;;;5010282;28;20030;-62
2022/08/07 07:43:58;;;;;;;;;;;;;;;;;;;;;
2022/08/07 07:46:26;;;;;;;4.13;3.28;;;16.50;89.70;;;;;;5043283;28;20028;-62
2022/08/07 07:48:53;;;;;;;5.35;3.58;;;16.70;89.30;;;;;;5037661;28;20022;-62
2022/08/07 07:51:21;;;;;;;4.07;3.17;;;16.80;88.90;;;;;;5042203;28;20079;-61
2022/08/07 07:54:21;;;;;;;5.18;3.38;;;16.90;88.60;;;;;;5029448;28;20122;-62
2022/08/07 07:56:47;;;;;;;;;;;17.00;88.10;;;;;;5044782;28;20456;-62
2022/08/07 07:59:14;;;;;;;4.80;3.28;;;17.00;88.10;;;;;;5045203;28;20003;-62
2022/08/07 08:04:48;;;;;;;3.72;2.78;;;17.30;86.90;;;;;;5031031;28;20551;-62
2022/08/07 08:07:14;;;;;;;4.03;3.03;;;17.40;86.70;;;;;;5043231;28;20025;-62
2022/08/07 08:09:41;;;;;;;5.15;2.85;;;17.50;86.30;;;;;;5042250;28;20025;-62
2022/08/07 08:12:08;;;;;;;3.72;2.42;;;17.60;85.80;;;;;;5048141;28;20493;-62
2022/08/07 08:14:34;;;;;;;4.13;2.15;;;17.70;85.80;;;;;;5042204;28;20397;-62
2022/08/07 08:17:01;;;;;;;4.65;2.80;;;17.80;84.60;;;;;;5048486;28;20096;-62
2022/08/07 08:19:30;;;;;;;3.50;2.15;;;17.80;83.70;;;;;;5043618;28;20047;-61
2022/08/07 08:28:27;;;;;;;4.47;3.83;;;18.30;82.00;;;;;;5041215;28;20535;-62
2022/08/07 08:30:58;;;;;;;3.90;2.70;;;18.30;81.20;;;;;;5043779;28;20018;-62
2022/08/07 08:33:28;;;;;;;3.92;2.50;;;18.40;80.50;;;;;;5052455;28;20488;-62
2022/08/07 08:39:39;;;;;;;6.13;2.83;;;18.60;79.70;;;;;;5040549;28;20040;-61
2022/08/07 08:42:35;;;;;;;2.80;1.80;;;18.70;78.90;;;;;;5050475;28;20037;-61
2022/08/07 08:45:52;;;;;;;3.72;2.50;;;18.80;78.30;;;;;;5042980;28;20456;-62
2022/08/07 08:48:45;;;;;;;4.30;2.30;;;18.90;77.80;;;;;;5040880;28;20022;-62
2022/08/07 08:51:16;;;;;;;3.13;2.10;;;19.00;77.00;;;;;;5033880;28;20024;-61
2022/08/07 08:54:02;;;;;;;2.10;1.55;;;19.10;76.70;;;;;;5034941;28;20021;-62
2022/08/07 08:56:58;;;;;;;2.85;1.70;;;19.20;76.40;;;;;;5033623;28;20040;-62
2022/08/07 08:59:52;;;;;;;3.60;2.13;;;19.30;76.30;;;;;;5048372;28;20024;-62
2022/08/07 09:02:55;;;;;;;;;;;;;;;;;;;;;
2022/08/07 09:05:39;;;;;;;3.58;2.30;;;19.50;75.20;;;;;;4993302;28;20034;-62
2022/08/07 09:08:28;;;;;;;3.97;2.45;;;19.60;74.50;;;;;;5002062;28;20030;-62
2022/08/07 09:11:12;;;;;;;5.03;2.72;;;19.70;74.00;;;;;;4993124;28;20026;-62
2022/08/07 09:14:05;;;;;;;4.13;3.00;;;19.70;73.60;;;;;;4993088;28;20030;-62
2022/08/07 09:16:41;;;;;;;2.40;2.03;;;19.90;72.90;;;;;;4992714;28;20068;-62
2022/08/07 09:19:20;;;;;;;3.78;2.10;;;20.00;72.70;;;;;;5001831;28;20022;-62
2022/08/07 09:21:55;;;;;;;3.08;2.17;;;20.10;72.50;;;;;;4995119;28;20031;-62
2022/08/07 09:24:46;;;;;;;2.33;1.83;;;20.10;72.40;;;;;;4992957;28;20033;-62
2022/08/07 09:27:32;;;;;;;2.92;1.75;;;20.30;72.10;;;;;;5001887;28;20068;-62
2022/08/07 09:30:09;;;;;;;1.80;1.50;;;20.30;71.40;;;;;;5011806;28;20060;-62
2022/08/07 09:32:55;;;;;;;1.95;1.33;;;20.40;70.90;;;;;;4998842;28;20089;-61
2022/08/07 09:35:54;;;;;;;2.92;1.48;;;20.50;70.60;;;;;;5012405;28;20026;-62
2022/08/07 09:38:54;;;;;;;2.70;1.42;;;20.50;69.20;;;;;;5012282;28;20018;-62
2022/08/07 09:42:08;;;;;;;3.28;1.75;;;20.60;69.10;;;;;;5005824;28;20494;-62
2022/08/07 09:45:06;;;;;;;2.80;1.83;;;20.60;69.20;;;;;;4992810;28;20029;-62
2022/08/07 09:51:15;;;;;;;3.00;2.00;;;20.90;68.50;;;;;;4989433;28;20478;-62
2022/08/07 09:53:43;;;;;;;3.45;2.13;;;21.00;67.60;;;;;;5005030;28;20034;-62
2022/08/07 09:56:45;;;;;;;4.70;2.05;;;21.00;64.90;;;;;;5011941;28;20030;-62
2022/08/07 09:59:32;;;;;;;2.30;2.10;;;21.10;65.10;;;;;;5004819;28;20105;-62
2022/08/07 10:02:04;;;;;;;2.60;1.60;;;21.20;64.30;;;;;;5001803;28;20113;-62
2022/08/07 10:04:44;;;;;;;3.33;2.08;;;21.20;64.70;;;;;;5029969;28;20049;-62
2022/08/07 10:07:35;;;;;;;2.33;1.45;;;21.30;63.40;;;;;;5045956;28;20044;-62
2022/08/07 10:10:37;;;;;;;3.05;1.23;;;21.40;64.00;;;;;;5024426;28;20436;-62
2022/08/07 10:13:21;;;;;;;2.13;1.60;;;21.50;63.80;;;;;;5044081;28;20032;-62
2022/08/07 10:16:22;;;;;;;2.42;1.48;;;21.60;63.30;;;;;;5050093;28;20028;-62
2022/08/07 10:19:17;;;;;;;3.67;1.30;;;21.60;63.10;;;;;;5035922;28;20631;-62
2022/08/07 10:22:04;;;;;;;2.05;1.38;;;21.60;62.60;;;;;;5039833;28;20041;-62
2022/08/07 10:25:05;;;;;;;2.47;1.30;;;21.60;62.20;;;;;;5050174;28;20020;-62
2022/08/07 10:27:35;;;;;;;1.40;0.93;;;21.60;62.40;;;;;;4986832;28;20033;-63
2022/08/07 10:30:15;;;;;;;2.63;1.23;;;21.70;62.30;;;;;;5045235;28;20037;-61
2022/08/07 10:33:08;;;;;;;1.58;1.05;;;21.90;61.70;;;;;;5037512;28;20048;-61
2022/08/07 10:35:58;;;;;;;2.15;1.00;;;22.00;61.00;;;;;;5049017;28;20029;-62
2022/08/07 10:38:50;;;;;;;1.30;1.00;;;22.10;60.80;;;;;;5033374;28;20032;-62
2022/08/07 10:41:37;;;;;;;1.20;0.95;;;22.20;60.50;;;;;;5051462;28;20028;-61
2022/08/07 10:44:11;;;;;;;1.85;1.48;;;22.40;60.70;;;;;;5051598;28;20021;-62
2022/08/07 10:47:08;;;;;;;3.30;1.63;;;22.50;59.20;;;;;;5051050;28;20024;-62
2022/08/07 10:49:39;;;;;;;1.73;1.30;;;22.60;59.10;;;;;;5022730;28;20473;-62
2022/08/07 10:52:26;;;;;;;1.65;1.20;;;22.70;58.90;;;;;;5052056;28;20423;-62
2022/08/07 10:55:00;;;;;;;1.85;1.10;;;22.90;58.90;;;;;;5051463;28;20028;-62
2022/08/07 10:57:56;;;;;;;2.13;1.60;;;23.00;58.70;;;;;;5048805;28;20064;-62
2022/08/07 11:00:26;;;;;;;2.42;1.00;;;23.20;58.20;;;;;;5053084;28;20057;-62
2022/08/07 11:03:04;;;;;;;1.83;0.98;;;23.20;57.90;;;;;;5048531;28;20021;-62
2022/08/07 11:06:07;;;;;;;1.27;1.00;;;23.30;57.50;;;;;;5052842;28;20025;-62
2022/08/07 11:08:57;;;;;;;1.80;1.30;;;23.40;57.30;;;;;;5049724;28;20048;-62
2022/08/07 11:11:57;;;;;;;1.63;1.35;;;23.50;56.40;;;;;;5031106;28;20052;-62
2022/08/07 11:14:35;;;;;;;1.75;1.10;;;23.60;56.00;;;;;;5050658;28;20053;-62
2022/08/07 11:17:17;;;;;;;1.40;0.88;;;23.70;56.10;;;;;;5052181;28;20384;-62
2022/08/07 11:20:09;;;;;;;1.92;1.30;;;23.90;55.90;;;;;;5050156;28;20416;-62
2022/08/07 11:22:47;;;;;;;1.83;0.93;;;24.20;55.40;;;;;;5050229;28;20037;-62
2022/08/07 11:25:16;;;;;;;3.05;1.00;;;24.30;54.80;;;;;;5031789;28;20075;-62
2022/08/07 11:28:15;;;;;;;1.73;0.90;;;24.40;54.40;;;;;;5051742;28;20456;-62
2022/08/07 11:31:08;;;;;;;1.37;1.10;;;24.40;54.10;;;;;;5035822;28;20047;-62
2022/08/07 11:33:52;;;;;;;1.83;0.93;;;24.40;54.80;;;;;;5044009;28;20259;-62
2022/08/07 11:36:36;;;;;;;1.20;0.90;;;24.60;54.40;;;;;;5048834;28;20151;-62
2022/08/07 11:39:55;;;;;;;;;;;;;;;;;;;;;
2022/08/07 11:42:47;;;;;;;1.38;0.77;;;25.10;53.70;;;;;;5050335;28;20020;-62
2022/08/07 11:45:44;;;;;;;2.30;0.98;;;25.30;53.50;;;;;;5048703;28;20500;-62
2022/08/07 11:48:35;;;;;;;2.67;1.52;;;25.60;53.40;;;;;;5050644;28;20044;-62
2022/08/07 11:51:26;;;;;;;2.08;1.08;;;25.80;51.50;;;;;;5036366;28;20021;-62
2022/08/07 11:54:26;;;;;;;1.35;0.70;;;25.90;50.80;;;;;;5040442;28;20031;-62
2022/08/07 11:57:20;;;;;;;1.70;0.80;;;26.20;51.10;;;;;;5039340;28;20092;-62
2022/08/07 12:00:12;;;;;;;2.25;1.00;;;26.40;50.60;;;;;;5046140;28;20325;-62
2022/08/07 12:02:57;;;;;;;1.45;1.02;;;26.60;49.80;;;;;;5046069;28;20071;-62
2022/08/07 12:05:31;;;;;;;1.15;0.77;;;26.70;49.80;;;;;;5047390;28;20041;-62
2022/08/07 12:08:06;;;;;;;1.85;1.00;;;26.80;49.70;;;;;;5044968;28;20091;-62
2022/08/07 12:10:52;;;;;;;1.90;1.05;;;27.10;49.40;;;;;;5044305;28;20036;-62
2022/08/07 12:13:32;;;;;;;1.73;0.90;;;27.30;49.00;;;;;;5041930;28;20481;-62
2022/08/07 12:16:04;;;;;;;2.13;0.70;;;27.50;48.40;;;;;;5041671;28;20070;-62
2022/08/07 12:19:01;;;;;;;2.38;1.00;;;27.60;47.80;;;;;;5041942;28;20021;-62
2022/08/07 12:21:46;;;;;;;2.65;1.13;;;27.80;47.00;;;;;;5030725;28;20017;-62
2022/08/07 12:27:39;;;;;;;1.58;1.00;;;28.00;46.00;;;;;;5045141;28;20126;-62
2022/08/07 12:30:07;;;;;;;1.73;0.90;;;28.10;45.90;;;;;;5043150;28;20511;-62
2022/08/07 12:32:41;;;;;;;1.55;0.90;;;28.20;46.10;;;;;;5043028;28;20052;-62
2022/08/07 12:35:12;;;;;;;2.17;1.40;;;28.40;46.10;;;;;;5051403;28;20020;-63
2022/08/07 12:37:40;;;;;;;1.65;0.90;;;28.60;46.10;;;;;;5045121;28;20091;-62
2022/08/07 12:40:07;;;;;;;1.37;0.80;;;28.80;45.40;;;;;;5047591;28;20052;-62
2022/08/07 12:42:35;;;;;;;3.08;1.58;;;29.00;45.30;;;;;;5045517;28;20029;-62
2022/08/07 12:45:07;;;;;;;1.70;1.05;;;29.00;44.30;;;;;;5044109;28;20126;-62
2022/08/07 12:47:45;;;;;;;1.50;1.10;;;29.10;44.30;;;;;;5041234;28;20040;-62
2022/08/07 12:50:33;;;;;;;1.23;0.80;;;29.30;44.30;;;;;;5044136;28;20029;-63
2022/08/07 12:53:30;;;;;;;2.90;0.90;;;29.60;44.30;;;;;;5048126;28;20020;-62
2022/08/07 12:56:00;;;;;;;1.88;0.95;;;29.70;43.60;;;;;;5048976;28;20032;-62
2022/08/07 12:58:33;;;;;;;1.05;0.77;;;29.80;42.50;;;;;;5048872;28;20020;-62
2022/08/07 13:01:12;;;;;;;1.10;0.77;;;29.90;42.30;;;;;;5049946;28;20025;-62
2022/08/07 13:03:41;;;;;;;1.85;1.00;;;30.10;42.50;;;;;;5046038;28;20041;-63
2022/08/07 13:06:19;;;;;;;0.80;0.63;;;30.20;42.10;;;;;;5041295;28;20032;-63
2022/08/07 13:08:58;;;;;;;1.10;0.80;;;30.50;41.90;;;;;;5043417;28;20036;-62
2022/08/07 13:11:50;;;;;;;1.23;0.80;;;30.60;41.60;;;;;;5028463;28;20017;-62
2022/08/07 13:14:28;;;;;;;1.90;0.73;;;30.60;40.20;;;;;;5020015;28;20021;-62
2022/08/07 13:17:10;;;;;;;2.00;0.83;;;30.70;40.50;;;;;;5034558;28;20021;-62
2022/08/07 13:20:04;;;;;;;1.25;0.85;;;31.00;40.80;;;;;;5052167;28;20271;-63
2022/08/07 13:22:48;;;;;;;2.33;0.98;;;31.10;40.60;;;;;;5042587;28;20032;-63
2022/08/07 13:25:30;;;;;;;1.77;0.77;;;31.10;40.60;;;;;;5052025;28;20029;-62
2022/08/07 13:28:01;;;;;;;1.92;0.80;;;31.30;40.50;;;;;;5050073;28;20155;-62
2022/08/07 13:30:44;;;;;;;0.95;0.75;;;31.40;40.20;;;;;;5032879;28;20069;-63
2022/08/07 13:36:52;;;;;;;1.63;0.90;;;31.70;39.30;;;;;;5020966;28;20084;-62
2022/08/07 13:39:42;;;;;;;0.93;0.80;;;31.80;39.00;;;;;;5031761;28;20030;-63
2022/08/07 13:42:39;;;;;;;1.20;0.75;;;31.90;38.50;;;;;;5042738;28;20095;-62
2022/08/07 13:45:07;;;;;;;1.30;0.70;;;31.80;38.20;;;;;;5043742;28;20034;-62
2022/08/07 13:47:36;;;;;;;1.10;0.70;;;31.80;38.50;;;;;;5052348;28;20063;-63
2022/08/07 13:50:03;;;;;;;1.10;0.70;;;32.00;38.00;;;;;;5051416;28;20032;-62
2022/08/07 13:52:35;;;;;;;1.00;0.70;;;31.80;37.30;;;;;;5043184;28;20063;-62
2022/08/07 13:55:07;;;;;;;0.90;0.70;;;31.90;37.00;;;;;;5052337;28;20082;-62
2022/08/07 13:57:34;;;;;;;1.15;0.63;;;32.00;37.80;;;;;;5049068;28;20539;-63
2022/08/07 14:00:01;;;;;;;1.65;1.10;;;32.20;38.10;;;;;;5051897;28;20036;-63